createdAt,value
2017-11-23T00:00:51.348Z,99.99
2017-11-23T00:02:04.031Z,99.99
2017-11-23T00:03:16.712Z,99.99
2017-11-23T00:04:29.417Z,99.99
2017-11-23T00:05:42.112Z,99.99
2017-11-23T00:06:54.810Z,99.99
2017-11-23T00:08:07.044Z,99.99
2017-11-23T00:09:19.236Z,99.99
2017-11-23T00:10:32.004Z,99.99
2017-11-23T00:11:44.773Z,99.99
2017-11-23T00:12:57.067Z,99.99
2017-11-23T00:14:09.811Z,99.99
2017-11-23T00:15:22.547Z,99.99
2017-11-23T00:16:35.314Z,99.99
2017-11-23T00:17:48.085Z,99.99
2017-11-23T00:19:00.816Z,99.99
2017-11-23T00:20:13.095Z,99.99
2017-11-23T00:21:25.430Z,99.99
2017-11-23T00:22:38.211Z,99.99
2017-11-23T00:23:50.943Z,99.99
2017-11-23T00:25:03.674Z,99.99
2017-11-23T00:26:16.432Z,99.99
2017-11-23T00:27:29.169Z,99.99
2017-11-23T00:28:41.923Z,99.99
2017-11-23T00:29:54.684Z,99.99
2017-11-23T00:31:07.423Z,99.99
2017-11-23T00:32:19.271Z,99.99
2017-11-23T00:33:32.014Z,99.99
2017-11-23T00:34:44.767Z,99.99
2017-11-23T00:35:57.486Z,99.99
2017-11-23T00:37:10.214Z,99.99
2017-11-23T00:38:22.087Z,99.99
2017-11-23T00:39:34.825Z,99.99
2017-11-23T00:40:47.580Z,99.99
2017-11-23T00:41:59.851Z,99.99
2017-11-23T00:43:12.575Z,99.99
2017-11-23T00:44:25.317Z,99.99
2017-11-23T00:45:37.596Z,99.99
2017-11-23T00:46:50.328Z,99.99
2017-11-23T00:48:03.049Z,99.99
2017-11-23T00:49:15.787Z,99.99
2017-11-23T00:50:28.509Z,99.99
2017-11-23T00:51:41.231Z,99.99
2017-11-23T00:52:53.962Z,99.99
2017-11-23T00:54:06.243Z,99.99
2017-11-23T00:55:18.980Z,99.99
2017-11-23T00:56:31.264Z,99.99
2017-11-23T00:57:43.565Z,99.99
2017-11-23T00:58:56.301Z,99.99
2017-11-23T01:00:09.041Z,99.99
2017-11-23T01:01:21.817Z,99.99
2017-11-23T01:02:34.024Z,99.99
2017-11-23T01:03:45.833Z,99.99
2017-11-23T01:04:58.468Z,99.99
2017-11-23T01:06:11.148Z,99.99
2017-11-23T01:07:23.420Z,99.99
2017-11-23T01:08:36.095Z,99.99
2017-11-23T01:09:48.764Z,99.99
2017-11-23T01:11:01.451Z,99.99
2017-11-23T01:12:14.133Z,99.99
2017-11-23T01:13:26.791Z,99.99
2017-11-23T01:14:39.508Z,99.99
2017-11-23T01:15:52.215Z,99.99
2017-11-23T01:17:04.867Z,99.99
2017-11-23T01:18:17.610Z,99.99
2017-11-23T01:19:29.857Z,99.99
2017-11-23T01:20:42.554Z,99.99
2017-11-23T01:21:54.343Z,99.99
2017-11-23T01:23:07.039Z,99.99
2017-11-23T01:24:19.755Z,99.99
2017-11-23T01:25:32.438Z,99.99
2017-11-23T01:26:45.157Z,99.99
2017-11-23T01:27:57.868Z,99.99
2017-11-23T01:29:10.591Z,99.99
2017-11-23T01:30:23.303Z,99.99
2017-11-23T01:31:35.540Z,99.99
2017-11-23T01:32:48.275Z,99.99
2017-11-23T01:34:00.955Z,99.99
2017-11-23T01:35:13.674Z,99.99
2017-11-23T01:36:26.361Z,99.99
2017-11-23T01:37:39.093Z,99.99
2017-11-23T01:38:51.847Z,99.99
2017-11-23T01:40:04.609Z,99.99
2017-11-23T01:41:17.332Z,99.99
2017-11-23T01:42:29.603Z,99.99
2017-11-23T01:43:42.315Z,99.99
2017-11-23T01:44:55.015Z,99.99
2017-11-23T01:46:07.279Z,99.99
2017-11-23T01:47:19.956Z,99.99
2017-11-23T01:48:32.210Z,99.99
2017-11-23T01:49:44.438Z,99.99
2017-11-23T01:50:57.148Z,99.99
2017-11-23T01:52:09.407Z,99.99
2017-11-23T01:53:22.116Z,99.99
2017-11-23T01:54:34.836Z,99.99
2017-11-23T01:55:47.486Z,99.99
2017-11-23T01:57:00.218Z,99.99
2017-11-23T01:58:12.910Z,99.99
2017-11-23T01:59:25.633Z,99.99
2017-11-23T02:00:38.289Z,99.99
2017-11-23T02:01:51.008Z,99.99
2017-11-23T02:03:03.647Z,99.99
2017-11-23T02:04:16.346Z,99.99
2017-11-23T02:05:28.643Z,99.99
2017-11-23T02:06:41.335Z,99.99
2017-11-23T02:07:54.042Z,99.99
2017-11-23T02:09:06.775Z,99.99
2017-11-23T02:10:19.012Z,99.99
2017-11-23T02:11:31.764Z,99.99
2017-11-23T02:12:44.430Z,99.99
2017-11-23T02:13:57.142Z,99.99
2017-11-23T02:15:09.804Z,99.99
2017-11-23T02:16:22.053Z,99.99
2017-11-23T02:17:34.874Z,99.99
2017-11-23T02:18:47.554Z,99.99
2017-11-23T02:19:59.760Z,99.99
2017-11-23T02:21:12.449Z,99.99
2017-11-23T02:22:25.136Z,99.99
2017-11-23T02:23:37.369Z,99.99
2017-11-23T02:24:50.039Z,99.99
2017-11-23T02:26:02.726Z,99.99
2017-11-23T02:27:14.968Z,99.99
2017-11-23T02:28:27.668Z,99.99
2017-11-23T02:29:40.370Z,99.99
2017-11-23T02:30:52.594Z,99.99
2017-11-23T02:32:04.832Z,99.99
2017-11-23T02:33:17.106Z,99.99
2017-11-23T02:34:29.795Z,99.99
2017-11-23T02:35:46.736Z,99.99
2017-11-23T02:36:59.445Z,99.99
2017-11-23T02:38:12.135Z,99.99
2017-11-23T02:39:24.867Z,99.99
2017-11-23T02:40:37.628Z,99.99
2017-11-23T02:41:50.304Z,99.99
2017-11-23T02:43:03.046Z,99.99
2017-11-23T02:44:16.066Z,99.99
2017-11-23T02:45:28.792Z,99.99
2017-11-23T02:46:41.439Z,99.99
2017-11-23T02:47:54.160Z,99.99
2017-11-23T02:49:06.894Z,99.99
2017-11-23T02:50:19.117Z,99.99
2017-11-23T02:51:31.328Z,99.99
2017-11-23T02:52:43.996Z,99.99
2017-11-23T02:53:56.677Z,99.99
2017-11-23T02:55:09.472Z,99.99
2017-11-23T02:56:22.180Z,99.99
2017-11-23T02:57:34.860Z,99.99
2017-11-23T02:58:47.566Z,99.99
2017-11-23T03:00:00.263Z,99.99
2017-11-23T03:01:13.033Z,99.99
2017-11-23T03:02:25.715Z,99.99
2017-11-23T03:03:38.389Z,99.99
2017-11-23T03:04:53.311Z,99.99
2017-11-23T03:06:06.049Z,99.99
2017-11-23T03:07:18.730Z,99.99
2017-11-23T03:08:31.453Z,99.99
2017-11-23T03:09:43.686Z,99.99
2017-11-23T03:10:56.375Z,99.99
2017-11-23T03:12:09.069Z,99.99
2017-11-23T03:13:21.736Z,99.99
2017-11-23T03:14:34.401Z,99.99
2017-11-23T03:15:47.309Z,99.99
2017-11-23T03:17:00.432Z,99.99
2017-11-23T03:18:12.717Z,99.99
2017-11-23T03:19:24.996Z,99.99
2017-11-23T03:20:37.734Z,99.99
2017-11-23T03:21:50.057Z,99.99
2017-11-23T03:23:02.789Z,99.99
2017-11-23T03:24:14.641Z,99.99
2017-11-23T03:25:26.919Z,99.99
2017-11-23T03:26:39.212Z,99.99
2017-11-23T03:27:51.974Z,99.99
2017-11-23T03:29:04.717Z,99.99
2017-11-23T03:30:17.019Z,99.99
2017-11-23T03:31:29.768Z,99.99
2017-11-23T03:32:42.518Z,99.99
2017-11-23T03:33:55.264Z,99.99
2017-11-23T03:35:08.003Z,99.99
2017-11-23T03:36:20.300Z,99.99
2017-11-23T03:37:33.024Z,99.99
2017-11-23T03:38:45.760Z,99.99
2017-11-23T03:39:58.486Z,99.99
2017-11-23T03:41:10.774Z,99.99
2017-11-23T03:42:23.532Z,99.99
2017-11-23T03:43:35.830Z,99.99
2017-11-23T03:44:48.127Z,99.99
2017-11-23T03:46:00.879Z,99.99
2017-11-23T03:47:13.619Z,99.99
2017-11-23T03:48:26.379Z,99.99
2017-11-23T03:49:39.151Z,99.99
2017-11-23T03:50:51.920Z,99.99
2017-11-23T03:52:04.678Z,99.99
2017-11-23T03:53:17.417Z,99.99
2017-11-23T03:54:30.163Z,99.99
2017-11-23T03:55:42.915Z,99.99
2017-11-23T03:56:55.645Z,99.99
2017-11-23T03:58:07.934Z,99.99
2017-11-23T03:59:20.691Z,99.99
2017-11-23T04:00:32.980Z,99.99
2017-11-23T04:01:45.708Z,99.99
2017-11-23T04:02:58.437Z,99.99
2017-11-23T04:04:11.184Z,99.99
2017-11-23T04:05:23.477Z,99.99
2017-11-23T04:06:36.209Z,99.99
2017-11-23T04:07:48.950Z,99.99
2017-11-23T04:09:01.690Z,99.99
2017-11-23T04:10:13.987Z,99.99
2017-11-23T04:11:26.746Z,99.99
2017-11-23T04:12:39.480Z,99.99
2017-11-23T04:13:52.230Z,99.99
2017-11-23T04:15:04.982Z,99.99
2017-11-23T04:16:17.745Z,99.99
2017-11-23T04:17:30.492Z,99.99
2017-11-23T04:18:43.272Z,99.99
2017-11-23T04:19:55.575Z,99.99
2017-11-23T04:21:08.337Z,99.99
2017-11-23T04:22:21.122Z,99.99
2017-11-23T04:23:33.424Z,99.99
2017-11-23T04:24:45.720Z,99.99
2017-11-23T04:25:58.476Z,99.99
2017-11-23T04:27:10.763Z,99.99
2017-11-23T04:28:23.558Z,99.99
2017-11-23T04:29:36.306Z,99.99
2017-11-23T04:30:48.605Z,99.99
2017-11-23T04:32:00.918Z,99.99
2017-11-23T04:33:13.671Z,99.99
2017-11-23T04:34:26.433Z,99.99
2017-11-23T04:35:38.742Z,99.99
2017-11-23T04:36:51.038Z,99.99
2017-11-23T04:38:03.807Z,99.99
2017-11-23T04:39:16.576Z,99.99
2017-11-23T04:40:29.323Z,99.99
2017-11-23T04:41:42.096Z,99.99
2017-11-23T04:42:54.857Z,99.99
2017-11-23T04:44:07.603Z,99.99
2017-11-23T04:45:20.338Z,99.99
2017-11-23T04:46:32.645Z,99.99
2017-11-23T04:47:45.399Z,99.99
2017-11-23T04:48:58.082Z,99.99
2017-11-23T04:50:10.737Z,99.99
2017-11-23T04:51:23.425Z,99.99
2017-11-23T04:52:36.124Z,99.99
2017-11-23T04:53:48.801Z,99.99
2017-11-23T04:55:01.462Z,99.99
2017-11-23T04:56:13.703Z,99.99
2017-11-23T04:57:25.910Z,99.99
2017-11-23T04:58:38.598Z,99.99
2017-11-23T04:59:51.308Z,99.99
2017-11-23T05:01:03.958Z,99.99
2017-11-23T05:02:15.706Z,99.99
2017-11-23T05:03:28.410Z,99.99
2017-11-23T05:04:40.635Z,99.99
2017-11-23T05:05:53.405Z,99.99
2017-11-23T05:07:06.095Z,99.99
2017-11-23T05:08:18.787Z,99.99
2017-11-23T05:09:31.480Z,99.99
2017-11-23T05:10:44.178Z,99.99
2017-11-23T05:11:56.865Z,99.99
2017-11-23T05:13:09.578Z,99.99
2017-11-23T05:14:22.329Z,99.99
2017-11-23T05:15:34.628Z,99.99
2017-11-23T05:16:47.301Z,99.99
2017-11-23T05:18:00.003Z,99.99
2017-11-23T05:19:12.279Z,99.99
2017-11-23T05:20:24.931Z,99.99
2017-11-23T05:21:37.638Z,99.99
2017-11-23T05:22:50.335Z,99.99
2017-11-23T05:24:03.113Z,99.99
2017-11-23T05:25:15.439Z,99.99
2017-11-23T05:26:28.210Z,99.99
2017-11-23T05:27:41.003Z,99.99
2017-11-23T05:28:53.763Z,99.99
2017-11-23T05:30:06.071Z,99.99
2017-11-23T05:31:17.964Z,99.99
2017-11-23T05:32:30.272Z,99.99
2017-11-23T05:33:43.035Z,99.99
2017-11-23T05:34:55.826Z,99.99
2017-11-23T05:36:08.610Z,99.99
2017-11-23T05:37:21.403Z,99.99
2017-11-23T05:38:34.189Z,99.99
2017-11-23T05:39:46.993Z,99.99
2017-11-23T05:40:59.789Z,99.99
2017-11-23T05:42:12.588Z,99.99
2017-11-23T05:43:25.411Z,99.99
2017-11-23T05:44:38.196Z,99.99
2017-11-23T05:45:50.975Z,99.99
2017-11-23T05:47:03.752Z,99.99
2017-11-23T05:48:16.091Z,99.99
2017-11-23T05:49:28.897Z,99.99
2017-11-23T05:50:41.701Z,99.99
2017-11-23T05:51:54.472Z,99.99
2017-11-23T05:53:07.274Z,99.99
2017-11-23T05:54:19.614Z,99.99
2017-11-23T05:55:31.933Z,99.99
2017-11-23T05:56:43.796Z,99.99
2017-11-23T05:57:56.594Z,99.99
2017-11-23T05:59:09.355Z,99.99
2017-11-23T06:00:21.678Z,99.99
2017-11-23T06:01:34.481Z,99.99
2017-11-23T06:02:46.811Z,99.99
2017-11-23T06:03:59.583Z,99.99
2017-11-23T06:05:12.326Z,99.99
2017-11-23T06:06:25.081Z,99.99
2017-11-23T06:07:37.828Z,99.99
2017-11-23T06:08:50.568Z,99.99
2017-11-23T06:10:03.315Z,99.99
2017-11-23T06:11:16.039Z,99.99
2017-11-23T06:12:28.770Z,99.99
2017-11-23T06:13:41.081Z,99.99
2017-11-23T06:14:53.823Z,99.99
2017-11-23T06:16:06.142Z,99.99
2017-11-23T06:17:18.901Z,99.99
2017-11-23T06:18:31.642Z,99.99
2017-11-23T06:19:44.382Z,99.99
2017-11-23T06:20:57.113Z,99.99
2017-11-23T06:22:09.852Z,99.99
2017-11-23T06:23:22.604Z,99.99
2017-11-23T06:24:35.347Z,99.99
2017-11-23T06:25:48.106Z,99.99
2017-11-23T06:27:00.842Z,99.99
2017-11-23T06:28:13.660Z,99.99
2017-11-23T06:29:26.380Z,99.99
2017-11-23T06:30:39.143Z,99.99
2017-11-23T06:31:51.358Z,99.99
2017-11-23T06:33:04.035Z,99.99
2017-11-23T06:34:16.709Z,99.99
2017-11-23T06:35:29.367Z,99.99
2017-11-23T06:36:42.040Z,99.99
2017-11-23T06:37:54.285Z,99.99
2017-11-23T06:39:06.963Z,99.99
2017-11-23T06:40:19.260Z,99.99
2017-11-23T06:41:31.944Z,99.99
2017-11-23T06:42:44.692Z,99.99
2017-11-23T06:43:57.391Z,99.99
2017-11-23T06:45:10.090Z,99.99
2017-11-23T06:46:22.759Z,99.99
2017-11-23T06:47:35.518Z,99.99
2017-11-23T06:48:48.196Z,99.99
2017-11-23T06:50:00.924Z,99.99
2017-11-23T06:51:13.958Z,99.99
2017-11-23T06:52:26.655Z,99.99
2017-11-23T06:53:39.359Z,99.99
2017-11-23T06:54:52.166Z,99.99
2017-11-23T06:56:04.919Z,99.99
2017-11-23T06:57:17.647Z,99.99
2017-11-23T06:58:30.390Z,99.99
2017-11-23T06:59:43.157Z,99.99
2017-11-23T07:00:55.887Z,99.99
2017-11-23T07:02:08.603Z,99.99
2017-11-23T07:03:20.817Z,99.99
2017-11-23T07:04:33.515Z,99.99
2017-11-23T07:05:46.279Z,99.99
2017-11-23T07:06:59.040Z,99.99
2017-11-23T07:08:11.802Z,99.99
2017-11-23T07:09:24.097Z,99.99
2017-11-23T07:10:36.392Z,99.99
2017-11-23T07:11:49.187Z,99.99
2017-11-23T07:13:01.949Z,99.99
2017-11-23T07:14:14.746Z,99.99
2017-11-23T07:15:27.513Z,99.99
2017-11-23T07:16:39.395Z,99.99
2017-11-23T07:17:52.174Z,99.99
2017-11-23T07:19:04.960Z,99.99
2017-11-23T07:20:17.262Z,99.99
2017-11-23T07:21:30.047Z,99.99
2017-11-23T07:22:42.921Z,99.99
2017-11-23T07:23:55.736Z,99.99
2017-11-23T07:25:08.491Z,99.99
2017-11-23T07:26:20.810Z,99.99
2017-11-23T07:27:33.562Z,99.99
2017-11-23T07:28:45.900Z,99.99
2017-11-23T07:29:58.679Z,99.99
2017-11-23T07:31:11.394Z,99.99
2017-11-23T07:32:24.182Z,99.99
2017-11-23T07:33:37.026Z,99.99
2017-11-23T07:34:49.833Z,99.99
2017-11-23T07:36:02.625Z,99.99
2017-11-23T07:37:14.909Z,99.99
2017-11-23T07:38:26.257Z,99.99
2017-11-23T07:39:39.057Z,99.99
2017-11-23T07:40:51.791Z,99.99
2017-11-23T07:42:04.058Z,99.99
2017-11-23T07:43:16.846Z,99.99
2017-11-23T07:44:29.597Z,99.99
2017-11-23T07:45:41.893Z,99.99
2017-11-23T07:46:54.218Z,99.99
2017-11-23T07:48:06.052Z,99.99
2017-11-23T07:49:18.877Z,99.99
2017-11-23T07:50:31.630Z,99.99
2017-11-23T07:51:43.901Z,99.99
2017-11-23T07:52:56.633Z,99.99
2017-11-23T07:54:09.356Z,99.99
2017-11-23T07:55:22.149Z,99.99
2017-11-23T07:56:34.863Z,99.99
2017-11-23T07:57:47.644Z,99.99
2017-11-23T07:59:00.378Z,99.99
2017-11-23T08:00:13.156Z,99.99
2017-11-23T08:01:25.018Z,99.99
2017-11-23T08:02:37.288Z,99.99
2017-11-23T08:03:50.015Z,99.99
2017-11-23T08:05:02.777Z,99.99
2017-11-23T08:06:15.105Z,99.99
2017-11-23T08:07:27.892Z,99.99
2017-11-23T08:08:40.208Z,99.99
2017-11-23T08:09:52.969Z,99.99
2017-11-23T08:11:05.704Z,99.99
2017-11-23T08:12:18.443Z,99.99
2017-11-23T08:13:30.716Z,99.99
2017-11-23T08:14:43.422Z,99.99
2017-11-23T08:15:56.141Z,99.99
2017-11-23T08:17:08.876Z,99.99
2017-11-23T08:18:21.580Z,99.99
2017-11-23T08:19:34.348Z,99.99
2017-11-23T08:20:47.122Z,99.99
2017-11-23T08:21:59.426Z,99.99
2017-11-23T08:23:12.140Z,99.99
2017-11-23T08:24:24.852Z,99.99
2017-11-23T08:25:37.537Z,99.99
2017-11-23T08:26:50.243Z,99.99
2017-11-23T08:28:02.929Z,99.99
2017-11-23T08:29:15.634Z,99.99
2017-11-23T08:30:28.279Z,99.99
2017-11-23T08:31:41.022Z,99.99
2017-11-23T08:32:53.708Z,99.99
2017-11-23T08:34:05.506Z,99.99
2017-11-23T08:35:18.208Z,99.99
2017-11-23T08:36:30.450Z,99.99
2017-11-23T08:37:42.264Z,99.99
2017-11-23T08:38:54.487Z,99.99
2017-11-23T08:40:07.209Z,99.99
2017-11-23T08:41:19.862Z,99.99
2017-11-23T08:42:32.536Z,99.99
2017-11-23T08:43:45.237Z,99.99
2017-11-23T08:44:57.565Z,99.99
2017-11-23T08:46:10.296Z,99.99
2017-11-23T08:47:23.040Z,99.99
2017-11-23T08:48:34.739Z,99.99
2017-11-23T08:49:46.868Z,99.99
2017-11-23T08:50:59.515Z,99.99
2017-11-23T08:52:12.100Z,99.99
2017-11-23T08:53:24.292Z,99.99
2017-11-23T08:54:36.936Z,99.99
2017-11-23T08:55:49.166Z,99.99
2017-11-23T08:57:01.816Z,99.99
2017-11-23T08:58:14.069Z,99.99
2017-11-23T08:59:26.286Z,99.99
2017-11-23T09:00:37.587Z,99.99
2017-11-23T09:01:49.762Z,99.99
2017-11-23T09:03:02.398Z,99.99
2017-11-23T09:04:15.087Z,99.99
2017-11-23T09:05:27.328Z,99.99
2017-11-23T09:06:39.531Z,99.99
2017-11-23T09:07:52.118Z,99.99
2017-11-23T09:09:04.762Z,99.99
2017-11-23T09:10:17.409Z,99.99
2017-11-23T09:11:30.141Z,99.99
2017-11-23T09:12:42.888Z,99.99
2017-11-23T09:13:55.092Z,99.99
2017-11-23T09:15:07.759Z,99.99
2017-11-23T09:16:20.403Z,99.99
2017-11-23T09:17:33.038Z,99.99
2017-11-23T09:18:45.706Z,99.99
2017-11-23T09:19:57.982Z,99.99
2017-11-23T09:21:10.750Z,99.99
2017-11-23T09:22:23.018Z,99.99
2017-11-23T09:23:35.777Z,99.99
2017-11-23T09:24:47.152Z,99.99
2017-11-23T09:25:59.924Z,99.99
2017-11-23T09:27:12.651Z,99.99
2017-11-23T09:28:25.395Z,99.99
2017-11-23T09:29:37.715Z,99.99
2017-11-23T09:30:50.022Z,99.99
2017-11-23T09:32:02.763Z,99.99
2017-11-23T09:33:15.071Z,99.99
2017-11-23T09:34:27.854Z,99.99
2017-11-23T09:35:40.614Z,99.99
2017-11-23T09:36:52.906Z,99.99
2017-11-23T09:38:05.577Z,99.99
2017-11-23T09:39:18.302Z,99.99
2017-11-23T09:40:31.076Z,99.99
2017-11-23T09:41:43.821Z,99.99
2017-11-23T09:42:56.588Z,99.99
2017-11-23T09:44:09.367Z,99.99
2017-11-23T09:45:21.691Z,99.99
2017-11-23T09:46:34.415Z,99.99
2017-11-23T09:47:47.174Z,99.99
2017-11-23T09:48:59.395Z,99.99
2017-11-23T09:50:12.176Z,99.99
2017-11-23T09:51:24.918Z,99.99
2017-11-23T09:52:37.218Z,99.99
2017-11-23T09:53:49.986Z,99.99
2017-11-23T09:55:02.763Z,99.99
2017-11-23T09:56:15.527Z,99.99
2017-11-23T09:57:28.291Z,99.99
2017-11-23T09:58:40.525Z,99.99
2017-11-23T09:59:51.893Z,99.99
2017-11-23T10:01:04.613Z,99.99
2017-11-23T10:02:17.350Z,99.99
2017-11-23T10:03:30.045Z,99.99
2017-11-23T10:04:42.795Z,99.99
2017-11-23T10:05:55.563Z,99.99
2017-11-23T10:07:07.833Z,99.99
2017-11-23T10:08:20.135Z,99.99
2017-11-23T10:09:32.858Z,99.99
2017-11-23T10:10:44.680Z,99.99
2017-11-23T10:11:56.970Z,99.99
2017-11-23T10:13:09.223Z,99.99
2017-11-23T10:14:21.491Z,99.99
2017-11-23T10:15:34.194Z,99.99
2017-11-23T10:16:46.460Z,99.97
2017-11-23T10:17:58.729Z,99.99
2017-11-23T10:19:11.434Z,99.78
2017-11-23T10:20:24.137Z,99.68
2017-11-23T10:21:36.817Z,99.99
2017-11-23T10:22:49.509Z,99.99
2017-11-23T10:24:02.293Z,99.99
2017-11-23T10:25:14.983Z,99.99
2017-11-23T10:26:26.774Z,99.99
2017-11-23T10:27:39.490Z,99.99
2017-11-23T10:28:52.177Z,99.97
2017-11-23T10:30:04.417Z,99.49
2017-11-23T10:31:17.097Z,99.99
2017-11-23T10:32:29.806Z,99.99
2017-11-23T10:33:41.591Z,99.99
2017-11-23T10:34:54.276Z,99.68
2017-11-23T10:36:06.497Z,99.97
2017-11-23T10:37:19.189Z,99.99
2017-11-23T10:38:31.447Z,99.99
2017-11-23T10:39:44.108Z,99.99
2017-11-23T10:40:56.815Z,99.99
2017-11-23T10:42:09.485Z,99.99
2017-11-23T10:43:21.689Z,99.99
2017-11-23T10:44:34.401Z,99.97
2017-11-23T10:45:47.060Z,99.97
2017-11-23T10:46:59.749Z,99.99
2017-11-23T10:48:12.409Z,99.99
2017-11-23T10:49:25.311Z,99.44
2017-11-23T10:50:37.981Z,99.06
2017-11-23T10:51:50.664Z,98.1
2017-11-23T10:53:03.375Z,97.81
2017-11-23T10:54:15.605Z,97.52
2017-11-23T10:55:26.935Z,97.42
2017-11-23T10:56:39.614Z,97.62
2017-11-23T10:57:52.324Z,97.86
2017-11-23T10:59:05.045Z,97.09
2017-11-23T11:00:17.733Z,97.19
2017-11-23T11:01:30.428Z,97.19
2017-11-23T11:02:42.666Z,96.99
2017-11-23T11:03:55.338Z,97.19
2017-11-23T11:05:07.996Z,96.61
2017-11-23T11:06:20.678Z,96.51
2017-11-23T11:07:32.954Z,96.51
2017-11-23T11:08:45.648Z,96.51
2017-11-23T11:09:58.355Z,96.03
2017-11-23T11:11:11.102Z,96.03
2017-11-23T11:12:23.737Z,96.03
2017-11-23T11:13:35.964Z,95.94
2017-11-23T11:14:48.623Z,96.13
2017-11-23T11:16:01.238Z,95.55
2017-11-23T11:17:13.910Z,95.55
2017-11-23T11:18:26.575Z,94.73
2017-11-23T11:19:39.162Z,95.4
2017-11-23T11:20:51.754Z,95.21
2017-11-23T11:22:04.459Z,95.12
2017-11-23T11:23:17.167Z,94.35
2017-11-23T11:24:29.802Z,94.25
2017-11-23T11:25:42.435Z,94.83
2017-11-23T11:26:55.194Z,94.54
2017-11-23T11:28:07.833Z,94.06
2017-11-23T11:29:20.546Z,93.96
2017-11-23T11:30:32.735Z,94.54
2017-11-23T11:31:45.384Z,94.15
2017-11-23T11:32:57.749Z,93.29
2017-11-23T11:34:10.418Z,93.29
2017-11-23T11:35:23.055Z,93.38
2017-11-23T11:36:35.290Z,93.77
2017-11-23T11:37:47.468Z,93.68
2017-11-23T11:39:00.062Z,94.1
2017-11-23T11:40:12.663Z,93.72
2017-11-23T11:41:25.353Z,91.6
2017-11-23T11:42:37.506Z,91.22
2017-11-23T11:43:50.175Z,91.27
2017-11-23T11:45:02.869Z,89.24
2017-11-23T11:46:15.157Z,89.53
2017-11-23T11:47:27.402Z,89.53
2017-11-23T11:48:39.707Z,89.15
2017-11-23T11:49:51.972Z,89.34
2017-11-23T11:51:03.809Z,88.95
2017-11-23T11:52:16.621Z,88.67
2017-11-23T11:53:29.401Z,88.76
2017-11-23T11:54:42.159Z,88.85
2017-11-23T11:55:54.897Z,88.85
2017-11-23T11:57:07.640Z,88.09
2017-11-23T11:58:20.377Z,88.76
2017-11-23T11:59:33.133Z,88.42
2017-11-23T12:00:45.438Z,88.61
2017-11-23T12:01:57.714Z,87.94
2017-11-23T12:03:10.487Z,88.37
2017-11-23T12:04:23.280Z,85.19
2017-11-23T12:05:36.200Z,84.12
2017-11-23T12:06:48.966Z,84.32
2017-11-23T12:08:01.749Z,84.03
2017-11-23T12:09:14.093Z,84.03
2017-11-23T12:10:26.403Z,83.94
2017-11-23T12:11:38.715Z,84.03
2017-11-23T12:12:51.494Z,84.7
2017-11-23T12:14:04.267Z,84.03
2017-11-23T12:15:16.576Z,84.52
2017-11-23T12:16:29.363Z,84.42
2017-11-23T12:17:42.122Z,84.52
2017-11-23T12:18:54.880Z,84.7
2017-11-23T12:20:07.580Z,84.32
2017-11-23T12:21:19.840Z,83.26
2017-11-23T12:22:32.578Z,83.16
2017-11-23T12:23:44.849Z,84.03
2017-11-23T12:24:57.109Z,83.94
2017-11-23T12:26:09.355Z,84.7
2017-11-23T12:27:21.649Z,84.12
2017-11-23T12:28:33.938Z,83.55
2017-11-23T12:29:46.216Z,83.45
2017-11-23T12:30:58.906Z,83.16
2017-11-23T12:32:11.524Z,83.07
2017-11-23T12:33:23.325Z,83.16
2017-11-23T12:34:35.125Z,83.64
2017-11-23T12:35:47.818Z,83.26
2017-11-23T12:37:00.486Z,83.55
2017-11-23T12:38:12.692Z,84.03
2017-11-23T12:39:24.903Z,83.74
2017-11-23T12:40:37.589Z,83.55
2017-11-23T12:41:50.360Z,83.64
2017-11-23T12:43:03.028Z,83.94
2017-11-23T12:44:15.304Z,84.9
2017-11-23T12:45:27.997Z,84.99
2017-11-23T12:46:40.671Z,85.09
2017-11-23T12:47:52.946Z,84.76
2017-11-23T12:49:04.750Z,85.34
2017-11-23T12:50:16.095Z,86.01
2017-11-23T12:51:28.814Z,85.82
2017-11-23T12:52:40.587Z,86.49
2017-11-23T12:53:52.803Z,85.72
2017-11-23T12:55:05.489Z,86.49
2017-11-23T12:56:17.734Z,86.3
2017-11-23T12:57:30.410Z,87.26
2017-11-23T12:58:43.098Z,86.11
2017-11-23T12:59:55.793Z,86.11
2017-11-23T13:01:08.092Z,86.3
2017-11-23T13:02:19.880Z,86.21
2017-11-23T13:03:32.092Z,85.82
2017-11-23T13:04:44.787Z,85.82
2017-11-23T13:05:57.044Z,85.82
2017-11-23T13:07:09.301Z,86.11
2017-11-23T13:08:21.986Z,86.11
2017-11-23T13:09:34.268Z,85.91
2017-11-23T13:10:46.932Z,85.67
2017-11-23T13:11:58.752Z,86.35
2017-11-23T13:13:11.495Z,85.67
2017-11-23T13:14:24.247Z,85.86
2017-11-23T13:15:36.529Z,85.86
2017-11-23T13:16:49.189Z,85.96
2017-11-23T13:18:01.441Z,85.57
2017-11-23T13:19:13.623Z,85.96
2017-11-23T13:20:25.393Z,85.57
2017-11-23T13:21:38.082Z,85.19
2017-11-23T13:22:50.803Z,85.23
2017-11-23T13:24:03.439Z,83.59
2017-11-23T13:25:16.119Z,82.72
2017-11-23T13:26:28.857Z,82.92
2017-11-23T13:27:41.150Z,81.95
2017-11-23T13:28:53.893Z,81.85
2017-11-23T13:30:05.730Z,81.57
2017-11-23T13:31:18.471Z,81.85
2017-11-23T13:32:30.306Z,82.72
2017-11-23T13:33:42.596Z,82.53
2017-11-23T13:34:55.334Z,82.43
2017-11-23T13:36:08.079Z,82.53
2017-11-23T13:37:20.828Z,81.76
2017-11-23T13:38:32.676Z,82.24
2017-11-23T13:39:45.419Z,81.95
2017-11-23T13:40:57.696Z,81.95
2017-11-23T13:42:10.438Z,81.66
2017-11-23T13:43:23.232Z,81.85
2017-11-23T13:44:35.969Z,82.14
2017-11-23T13:45:48.810Z,81.57
2017-11-23T13:47:01.540Z,82.34
2017-11-23T13:48:14.275Z,82.92
2017-11-23T13:49:27.020Z,83.4
2017-11-23T13:50:39.308Z,84.27
2017-11-23T13:51:52.051Z,85.61
2017-11-23T13:53:03.432Z,86.48
2017-11-23T13:54:15.717Z,86.82
2017-11-23T13:55:28.442Z,87.02
2017-11-23T13:56:40.732Z,87.79
2017-11-23T13:57:53.478Z,87.88
2017-11-23T13:59:05.833Z,88.17
2017-11-23T14:00:18.575Z,88.85
2017-11-23T14:01:30.415Z,88.95
2017-11-23T14:02:42.707Z,87.98
2017-11-23T14:03:54.975Z,88.37
2017-11-23T14:05:08.292Z,88.27
2017-11-23T14:06:22.455Z,89.04
2017-11-23T14:07:34.276Z,88.46
2017-11-23T14:08:47.007Z,88.75
2017-11-23T14:09:59.770Z,88.08
2017-11-23T14:11:12.516Z,87.98
2017-11-23T14:12:24.358Z,87.7
2017-11-23T14:13:37.122Z,86.1
2017-11-23T14:14:49.392Z,86.19
2017-11-23T14:16:02.138Z,86.19
2017-11-23T14:17:14.437Z,86.39
2017-11-23T14:18:27.212Z,85.81
2017-11-23T14:19:39.947Z,86.48
2017-11-23T14:20:51.336Z,85.61
2017-11-23T14:22:04.073Z,85.46
2017-11-23T14:23:15.913Z,85.94
2017-11-23T14:24:28.659Z,85.75
2017-11-23T14:25:40.946Z,86.14
2017-11-23T14:27:28.086Z,85.17
2017-11-23T14:28:40.830Z,84.79
2017-11-23T14:29:53.571Z,84.69
2017-11-23T14:31:06.310Z,84.5
2017-11-23T14:32:18.606Z,83.29
2017-11-23T14:33:30.886Z,83.19
2017-11-23T14:34:43.175Z,82.03
2017-11-23T14:35:55.901Z,81.74
2017-11-23T14:37:09.706Z,82.81
2017-11-23T14:38:28.369Z,82.71
2017-11-23T14:39:41.103Z,83
2017-11-23T14:40:53.835Z,83.48
2017-11-23T14:42:06.097Z,83.67
2017-11-23T14:43:18.821Z,84.93
2017-11-23T14:44:31.542Z,85.89
2017-11-23T14:45:42.922Z,87.1
2017-11-23T14:46:54.760Z,88.26
2017-11-23T14:48:07.876Z,88.22
2017-11-23T14:49:34.046Z,87.93
2017-11-23T14:50:46.782Z,87.97
2017-11-23T14:51:59.060Z,87.01
2017-11-23T14:53:11.340Z,88.7
2017-11-23T14:54:24.059Z,88.7
2017-11-23T14:55:36.775Z,88.7
2017-11-23T14:56:49.506Z,89.28
2017-11-23T14:58:02.237Z,90.05
2017-11-23T14:59:14.499Z,90.39
2017-11-23T15:00:27.234Z,90.15
2017-11-23T15:01:39.961Z,90.44
2017-11-23T15:02:52.693Z,90.24
2017-11-23T15:04:05.428Z,88.41
2017-11-23T15:05:18.155Z,88.17
2017-11-23T15:06:30.897Z,87.4
2017-11-23T15:07:43.616Z,87.49
2017-11-23T15:08:55.906Z,87.97
2017-11-23T15:10:18.699Z,87.3
2017-11-23T15:11:31.375Z,86.33
2017-11-23T15:12:43.171Z,87.3
2017-11-23T15:13:55.437Z,87.97
2017-11-23T15:15:08.136Z,88.26
2017-11-23T15:16:19.914Z,88.99
2017-11-23T15:17:32.104Z,89.67
2017-11-23T15:18:44.798Z,89.47
2017-11-23T15:19:57.436Z,89.47
2017-11-23T15:21:41.397Z,88.17
2017-11-23T15:22:54.072Z,86.72
2017-11-23T15:24:06.282Z,86.38
2017-11-23T15:25:18.936Z,86.57
2017-11-23T15:26:31.588Z,86.18
2017-11-23T15:27:43.832Z,87.1
2017-11-23T15:28:56.130Z,88.26
2017-11-23T15:30:08.392Z,88.07
2017-11-23T15:31:21.305Z,88.07
2017-11-23T15:32:58.014Z,88.36
2017-11-23T15:34:10.248Z,88.07
2017-11-23T15:35:22.958Z,88.55
2017-11-23T15:36:35.631Z,88.65
2017-11-23T15:37:47.843Z,88.26